Time;durP1;ratioP1;P1;durP2;ratioP2;P2;SDS_P1;SDS_P2;PMS_P1;PMS_P2;Temp;Humidity;BMP_temperature;BMP_pressure;BME280_temperature;BME280_humidity;BME280_pressure;Samples;Min_cycle;Max_cycle;Signal;HPM_P1;HPM_P2
2022/08/28 00:01:54;;;;;;;2.13;2.03;;;;;;;;;;5135409;27;20197;-59
2022/08/28 00:04:41;;;;;;;2.20;2.10;;;;;;;;;;5135771;27;20592;-59
2022/08/28 00:07:28;;;;;;;2.10;2.00;;;;;;;;;;5134371;27;20700;-59
2022/08/28 00:10:17;;;;;;;2.00;1.93;;;;;;;;;;5134311;27;20219;-60
2022/08/28 00:13:04;;;;;;;2.00;1.90;;;;;;;;;;5131037;27;20263;-59
2022/08/28 00:15:54;;;;;;;1.90;1.90;;;;;;;;;;5132664;27;20258;-60
2022/08/28 00:18:42;;;;;;;2.40;2.30;;;;;;;;;;5133430;27;20298;-59
2022/08/28 00:21:31;;;;;;;2.20;2.10;;;;;;;;;;5132046;27;20307;-59
2022/08/28 00:24:19;;;;;;;1.70;1.70;;;;;;;;;;5131305;27;20224;-59
2022/08/28 00:30:10;;;;;;;2.30;2.20;;;;;;;;;;5140653;27;20258;-59
2022/08/28 00:33:00;;;;;;;2.13;2.03;;;;;;;;;;5135336;27;20199;-59
2022/08/28 00:35:49;;;;;;;2.00;1.90;;;;;;;;;;5129048;27;20584;-59
2022/08/28 00:38:36;;;;;;;2.00;1.90;;;;;;;;;;5133847;27;20683;-60
2022/08/28 00:41:23;;;;;;;2.37;2.27;;;;;;;;;;5131292;27;20235;-59
2022/08/28 00:44:13;;;;;;;2.33;2.23;;;;;;;;;;5135595;27;20273;-59
2022/08/28 00:47:00;;;;;;;2.30;2.20;;;;;;;;;;5134650;27;20691;-59
2022/08/28 00:49:50;;;;;;;1.77;1.77;;;;;;;;;;5140923;27;20215;-59
2022/08/28 00:52:37;;;;;;;2.10;2.00;;;;;;;;;;5136858;27;20202;-60
2022/08/28 00:55:27;;;;;;;1.83;1.73;;;;;;;;;;5136818;27;20931;-59
2022/08/28 00:58:14;;;;;;;2.37;2.27;;;;;;;;;;5130402;27;20197;-59
2022/08/28 01:01:01;;;;;;;2.10;2.00;;;;;;;;;;5139085;27;20642;-59
2022/08/28 01:03:49;;;;;;;2.13;2.03;;;;;;;;;;5131425;27;20261;-60
2022/08/28 01:06:36;;;;;;;1.80;1.80;;;;;;;;;;5129268;27;20297;-60
2022/08/28 01:09:29;;;;;;;2.10;1.90;;;;;;;;;;5131400;27;20210;-58
2022/08/28 01:12:19;;;;;;;2.00;1.90;;;;;;;;;;5128601;27;20205;-59
2022/08/28 01:15:11;;;;;;;2.10;2.00;;;;;;;;;;5133400;27;20210;-59
2022/08/28 01:18:01;;;;;;;1.87;1.77;;;;;;;;;;5129289;27;20222;-59
2022/08/28 01:20:56;;;;;;;2.10;2.00;;;;;;;;;;5133268;27;20202;-59
2022/08/28 01:23:53;;;;;;;2.20;2.10;;;;;;;;;;5138841;27;20217;-59
2022/08/28 01:26:40;;;;;;;1.90;1.90;;;;;;;;;;5128865;27;20210;-59
2022/08/28 01:29:27;;;;;;;1.90;1.90;;;;;;;;;;5137653;27;20266;-59
2022/08/28 01:32:26;;;;;;;2.00;1.90;;;;;;;;;;5128806;27;20202;-59
2022/08/28 01:35:17;;;;;;;2.30;2.20;;;;;;;;;;5129630;27;20206;-59
2022/08/28 01:38:04;;;;;;;2.10;2.10;;;;;;;;;;5130612;27;20558;-59
2022/08/28 01:40:56;;;;;;;2.00;1.97;;;;;;;;;;5129423;27;20207;-59
2022/08/28 01:43:43;;;;;;;2.20;2.10;;;;;;;;;;5134094;27;20210;-59
2022/08/28 01:46:30;;;;;;;2.23;2.00;;;;;;;;;;5126712;27;20661;-60
2022/08/28 01:49:18;;;;;;;1.97;1.90;;;;;;;;;;5131376;27;20230;-59
2022/08/28 01:52:05;;;;;;;2.13;1.93;;;;;;;;;;5128158;27;20625;-59
2022/08/28 01:54:52;;;;;;;1.87;1.87;;;;;;;;;;5139215;27;20256;-59
2022/08/28 01:57:44;;;;;;;1.80;1.80;;;;;;;;;;5130512;27;20203;-59
2022/08/28 02:00:31;;;;;;;2.17;2.07;;;;;;;;;;5133453;27;20213;-59
2022/08/28 02:03:18;;;;;;;2.20;2.10;;;;;;;;;;5130891;27;20662;-59
2022/08/28 02:06:06;;;;;;;2.07;2.00;;;;;;;;;;5138846;27;20263;-59
2022/08/28 02:08:54;;;;;;;2.07;2.03;;;;;;;;;;5132523;27;20238;-59
2022/08/28 02:11:42;;;;;;;2.07;1.97;;;;;;;;;;5138721;27;20199;-59
2022/08/28 02:14:31;;;;;;;2.03;1.93;;;;;;;;;;5133521;27;20206;-59
2022/08/28 02:17:18;;;;;;;2.00;1.90;;;;;;;;;;5139941;27;20280;-59
2022/08/28 02:20:06;;;;;;;1.93;1.83;;;;;;;;;;5132546;27;20662;-59
2022/08/28 02:22:53;;;;;;;1.80;1.80;;;;;;;;;;5131844;27;20206;-59
2022/08/28 02:25:40;;;;;;;1.63;1.63;;;;;;;;;;5132730;27;20237;-59
2022/08/28 02:28:28;;;;;;;1.90;1.83;;;;;;;;;;5147328;27;20201;-59
2022/08/28 02:31:16;;;;;;;2.20;2.10;;;;;;;;;;5129276;27;20216;-59
2022/08/28 02:34:04;;;;;;;2.20;2.00;;;;;;;;;;5146772;27;20214;-59
2022/08/28 02:36:51;;;;;;;2.30;2.20;;;;;;;;;;5132488;27;20210;-59
2022/08/28 02:39:38;;;;;;;1.80;1.80;;;;;;;;;;5132345;27;20211;-59
2022/08/28 02:42:26;;;;;;;2.10;2.00;;;;;;;;;;5133758;27;20233;-59
2022/08/28 02:45:14;;;;;;;2.00;1.90;;;;;;;;;;5140264;27;20799;-59
2022/08/28 02:48:03;;;;;;;1.77;1.77;;;;;;;;;;5135194;27;20271;-59
2022/08/28 02:50:50;;;;;;;1.87;1.80;;;;;;;;;;5145520;27;20278;-59
2022/08/28 02:53:38;;;;;;;2.20;2.10;;;;;;;;;;5132175;27;20215;-60
2022/08/28 02:56:24;;;;;;;2.00;1.90;;;;;;;;;;5134439;27;20308;-59
2022/08/28 02:59:12;;;;;;;1.80;1.80;;;;;;;;;;5132783;27;20600;-60
2022/08/28 03:01:59;;;;;;;1.70;1.70;;;;;;;;;;5137064;27;20213;-59
2022/08/28 03:04:48;;;;;;;2.20;2.10;;;;;;;;;;5135221;27;20279;-59
2022/08/28 03:07:35;;;;;;;2.17;2.07;;;;;;;;;;5132383;27;20411;-59
2022/08/28 03:10:22;;;;;;;2.00;1.90;;;;;;;;;;5138701;27;20209;-59
2022/08/28 03:13:10;;;;;;;1.87;1.77;;;;;;;;;;5132501;27;20205;-59
2022/08/28 03:15:57;;;;;;;2.00;1.90;;;;;;;;;;5130536;27;20576;-60
2022/08/28 03:18:44;;;;;;;2.23;2.13;;;;;;;;;;5130588;27;20203;-59
2022/08/28 03:21:32;;;;;;;1.67;1.67;;;;;;;;;;5131540;27;20260;-59
2022/08/28 03:24:19;;;;;;;1.80;1.80;;;;;;;;;;5132355;27;20244;-60
2022/08/28 03:27:07;;;;;;;2.07;2.00;;;;;;;;;;5136495;27;20205;-59
2022/08/28 03:29:54;;;;;;;1.83;1.83;;;;;;;;;;5132776;27;20199;-59
2022/08/28 03:32:41;;;;;;;1.60;1.60;;;;;;;;;;5131901;27;20209;-59
2022/08/28 03:35:28;;;;;;;2.10;2.00;;;;;;;;;;5128553;27;20615;-59
2022/08/28 03:38:17;;;;;;;2.03;1.93;;;;;;;;;;5134745;27;20735;-59
2022/08/28 03:41:09;;;;;;;2.00;1.90;;;;;;;;;;5132419;27;20279;-60
2022/08/28 03:43:57;;;;;;;2.10;2.00;;;;;;;;;;5145023;27;20288;-59
2022/08/28 03:46:43;;;;;;;1.83;1.83;;;;;;;;;;5135512;27;20234;-59
2022/08/28 03:49:31;;;;;;;2.00;1.90;;;;;;;;;;5143464;27;20199;-60
2022/08/28 03:52:18;;;;;;;1.70;1.70;;;;;;;;;;5132929;27;20591;-59
2022/08/28 03:55:09;;;;;;;2.10;2.00;;;;;;;;;;5141229;27;20665;-59
2022/08/28 03:57:56;;;;;;;2.10;2.00;;;;;;;;;;5132802;27;20845;-59
2022/08/28 04:00:43;;;;;;;1.97;1.87;;;;;;;;;;5134075;27;20591;-59
2022/08/28 04:03:30;;;;;;;1.97;1.93;;;;;;;;;;5132628;27;20210;-59
2022/08/28 04:06:18;;;;;;;2.00;2.00;;;;;;;;;;5139094;27;20222;-59
2022/08/28 04:09:06;;;;;;;2.13;2.03;;;;;;;;;;5131417;27;20207;-59
2022/08/28 04:11:54;;;;;;;1.87;1.87;;;;;;;;;;5139549;27;20209;-59
2022/08/28 04:14:41;;;;;;;2.13;2.03;;;;;;;;;;5136147;27;20206;-59
2022/08/28 04:17:28;;;;;;;1.90;1.90;;;;;;;;;;5139784;27;20206;-60
2022/08/28 04:20:15;;;;;;;1.97;1.90;;;;;;;;;;5135985;27;20652;-59
2022/08/28 04:23:03;;;;;;;1.83;1.80;;;;;;;;;;5130709;27;20238;-59
2022/08/28 04:25:50;;;;;;;2.27;2.17;;;;;;;;;;5135778;27;20255;-60
2022/08/28 04:28:38;;;;;;;1.83;1.73;;;;;;;;;;5128957;27;20668;-59
2022/08/28 04:31:26;;;;;;;1.90;1.80;;;;;;;;;;5132744;27;20230;-59
2022/08/28 04:34:13;;;;;;;2.40;2.20;;;;;;;;;;5134741;27;20338;-59
2022/08/28 04:37:00;;;;;;;1.70;1.63;;;;;;;;;;5138675;27;20215;-60
2022/08/28 04:39:47;;;;;;;1.90;1.80;;;;;;;;;;5128929;27;20686;-59
2022/08/28 04:42:34;;;;;;;2.10;2.00;;;;;;;;;;5132905;27;20278;-59
2022/08/28 04:45:22;;;;;;;1.77;1.70;;;;;;;;;;5139278;27;20228;-59
2022/08/28 04:48:11;;;;;;;2.63;2.30;;;;;;;;;;5130996;27;20868;-59
2022/08/28 04:50:58;;;;;;;2.27;2.17;;;;;;;;;;5134028;27;20237;-59
2022/08/28 04:53:45;;;;;;;2.70;2.50;;;;;;;;;;5130270;27;20210;-59
2022/08/28 04:56:32;;;;;;;2.17;1.97;;;;;;;;;;5130090;27;20203;-59
2022/08/28 04:59:19;;;;;;;2.50;2.40;;;;;;;;;;5141528;27;20205;-58
2022/08/28 05:02:07;;;;;;;2.07;1.97;;;;;;;;;;5132364;27;20210;-59
2022/08/28 05:04:54;;;;;;;2.00;1.90;;;;;;;;;;5128055;27;20203;-60
2022/08/28 05:07:41;;;;;;;2.60;2.00;;;;;;;;;;5130887;27;20302;-59
2022/08/28 05:10:28;;;;;;;2.40;2.30;;;;;;;;;;5133165;27;20205;-59
2022/08/28 05:13:17;;;;;;;2.40;2.30;;;;;;;;;;5131064;27;20216;-59
2022/08/28 05:16:04;;;;;;;2.13;2.03;;;;;;;;;;5133696;27;20247;-59
2022/08/28 05:18:52;;;;;;;2.00;1.90;;;;;;;;;;5130731;27;20711;-60
2022/08/28 05:21:39;;;;;;;2.30;2.10;;;;;;;;;;5141995;27;20207;-60
2022/08/28 05:24:26;;;;;;;2.27;2.17;;;;;;;;;;5126382;27;20729;-59
2022/08/28 05:27:13;;;;;;;2.03;2.00;;;;;;;;;;5128467;27;20687;-60
2022/08/28 05:30:00;;;;;;;2.20;2.10;;;;;;;;;;5137145;27;20215;-59
2022/08/28 05:32:47;;;;;;;2.30;2.20;;;;;;;;;;5139328;27;20209;-59
2022/08/28 05:35:37;;;;;;;2.30;2.20;;;;;;;;;;5130008;27;20654;-59
2022/08/28 05:38:24;;;;;;;2.33;2.23;;;;;;;;;;5130241;27;20608;-59
2022/08/28 05:41:11;;;;;;;2.33;2.00;;;;;;;;;;5136065;27;20201;-59
2022/08/28 05:44:00;;;;;;;2.30;2.20;;;;;;;;;;5138126;27;20762;-59
2022/08/28 05:46:48;;;;;;;2.10;2.00;;;;;;;;;;5133720;27;20481;-60
2022/08/28 05:49:35;;;;;;;2.20;2.10;;;;;;;;;;5129287;28;20230;-59
2022/08/28 05:52:23;;;;;;;2.30;2.20;;;;;;;;;;5134462;27;20200;-59
2022/08/28 05:55:12;;;;;;;1.97;1.87;;;;;;;;;;5140081;27;20208;-60
2022/08/28 05:58:27;;;;;;;2.30;2.20;;;;;;;;;;5129504;27;20607;-59
2022/08/28 06:01:08;;;;;;;2.40;2.30;;;;;;;;;;5135960;27;20218;-59
2022/08/28 06:03:57;;;;;;;2.20;2.00;;;;;;;;;;5130961;27;20204;-59
2022/08/28 06:06:45;;;;;;;2.20;2.10;;;;;;;;;;5128560;27;20240;-59
2022/08/28 06:09:33;;;;;;;2.07;1.97;;;;;;;;;;5130846;27;20581;-60
2022/08/28 06:12:20;;;;;;;2.20;2.10;;;;;;;;;;5129245;27;20211;-59
2022/08/28 06:15:08;;;;;;;2.20;2.10;;;;;;;;;;5131656;27;20610;-59
2022/08/28 06:17:55;;;;;;;2.23;2.13;;;;;;;;;;5125388;28;20197;-59
2022/08/28 06:20:44;;;;;;;2.33;2.23;;;;;;;;;;5132500;27;20208;-59
2022/08/28 06:23:31;;;;;;;2.20;2.10;;;;;;;;;;5126307;28;20653;-59
2022/08/28 06:26:20;;;;;;;2.00;1.90;;;;;;;;;;5130626;27;20305;-60
2022/08/28 06:29:09;;;;;;;2.10;2.00;;;;;;;;;;5129021;27;20220;-60
2022/08/28 06:31:59;;;;;;;2.30;2.20;;;;;;;;;;5139828;27;20287;-60
2022/08/28 06:34:46;;;;;;;2.10;2.00;;;;;;;;;;5128216;27;20290;-60
2022/08/28 06:37:33;;;;;;;2.20;2.10;;;;;;;;;;5127695;28;20208;-59
2022/08/28 06:40:20;;;;;;;2.07;1.97;;;;;;;;;;5132739;27;20215;-60
2022/08/28 06:43:09;;;;;;;2.10;2.00;;;;;;;;;;5133671;27;20211;-59
2022/08/28 06:45:57;;;;;;;2.20;2.10;;;;;;;;;;5131139;27;20275;-60
2022/08/28 06:48:44;;;;;;;2.10;2.00;;;;;;;;;;5134412;27;20219;-59
2022/08/28 06:51:31;;;;;;;2.30;2.20;;;;;;;;;;5132100;27;20204;-59
2022/08/28 06:54:18;;;;;;;2.23;2.13;;;;;;;;;;5136220;27;20206;-59
2022/08/28 06:57:05;;;;;;;2.20;2.10;;;;;;;;;;5130492;27;20204;-59
2022/08/28 06:59:56;;;;;;;2.20;2.10;;;;;;;;;;5135234;27;20704;-59
2022/08/28 07:02:43;;;;;;;1.90;1.80;;;;;;;;;;5131561;27;20720;-59
2022/08/28 07:05:30;;;;;;;2.03;2.00;;;;;;;;;;5132302;27;20222;-59
2022/08/28 07:08:17;;;;;;;2.33;2.20;;;;;;;;;;5136915;27;20285;-59
2022/08/28 07:11:13;;;;;;;2.20;2.10;;;;;;;;;;5134583;27;20255;-59
2022/08/28 07:14:00;;;;;;;2.00;1.90;;;;;;;;;;5133867;27;20670;-59
2022/08/28 07:16:49;;;;;;;1.70;1.70;;;;;;;;;;5133951;27;20208;-59
2022/08/28 07:19:36;;;;;;;2.10;2.00;;;;;;;;;;5133133;27;20218;-59
2022/08/28 07:22:23;;;;;;;2.10;2.00;;;;;;;;;;5131371;27;20199;-60
2022/08/28 07:25:11;;;;;;;2.10;2.00;;;;;;;;;;5131011;27;20299;-59
2022/08/28 07:27:57;;;;;;;2.10;2.00;;;;;;;;;;5134165;27;20279;-59
2022/08/28 07:30:44;;;;;;;2.25;2.15;;;;;;;;;;5131231;27;20618;-59
2022/08/28 07:33:33;;;;;;;2.10;2.00;;;;;;;;;;5135079;27;20693;-60
2022/08/28 07:36:22;;;;;;;2.03;1.97;;;;;;;;;;5136202;27;20197;-59
2022/08/28 07:39:11;;;;;;;2.13;2.03;;;;;;;;;;5133121;27;20207;-59
2022/08/28 07:41:58;;;;;;;2.30;2.20;;;;;;;;;;5138956;27;20234;-59
2022/08/28 07:44:49;;;;;;;2.17;2.07;;;;;;;;;;5128888;27;20206;-59
2022/08/28 07:47:37;;;;;;;2.20;2.10;;;;;;;;;;5134452;27;20224;-59
2022/08/28 07:50:25;;;;;;;2.00;1.90;;;;;;;;;;5130971;27;20202;-60
2022/08/28 07:53:12;;;;;;;1.77;1.77;;;;;;;;;;5140687;27;20659;-59
2022/08/28 07:55:59;;;;;;;1.93;1.90;;;;;;;;;;5129883;27;20210;-60
2022/08/28 07:58:47;;;;;;;2.40;1.97;;;;;;;;;;5137552;27;20205;-60
2022/08/28 08:01:39;;;;;;;1.90;1.90;;;;;;;;;;5134312;27;20251;-59
2022/08/28 08:04:26;;;;;;;2.13;2.03;;;;;;;;;;5131031;27;20211;-59
2022/08/28 08:07:16;;;;;;;2.30;2.20;;;;;;;;;;5132938;27;20229;-59
2022/08/28 08:10:03;;;;;;;2.00;1.90;;;;;;;;;;5133377;27;20681;-60
2022/08/28 08:12:51;;;;;;;1.90;1.87;;;;;;;;;;5136167;27;20288;-59
2022/08/28 08:15:38;;;;;;;2.17;2.07;;;;;;;;;;5134663;27;20209;-59
2022/08/28 08:18:25;;;;;;;2.07;1.97;;;;;;;;;;5133776;27;20200;-59
2022/08/28 08:21:15;;;;;;;2.20;2.10;;;;;;;;;;5130735;27;20669;-60
2022/08/28 08:24:03;;;;;;;1.90;1.80;;;;;;;;;;5136989;27;20213;-59
2022/08/28 08:26:52;;;;;;;1.93;1.83;;;;;;;;;;5132837;27;20224;-59
2022/08/28 08:29:39;;;;;;;2.03;1.97;;;;;;;;;;5132025;27;20305;-59
2022/08/28 08:32:26;;;;;;;2.00;1.90;;;;;;;;;;5134329;27;20209;-59
2022/08/28 08:35:13;;;;;;;1.73;1.70;;;;;;;;;;5137340;27;20216;-59
2022/08/28 08:38:00;;;;;;;2.00;1.90;;;;;;;;;;5141110;27;20687;-59
2022/08/28 08:40:48;;;;;;;1.90;1.80;;;;;;;;;;5129049;27;20206;-59
2022/08/28 08:43:48;;;;;;;1.90;1.90;;;;;;;;;;5139057;27;20208;-59
2022/08/28 08:46:40;;;;;;;1.95;1.85;;;;;;;;;;5132946;27;20235;-60
2022/08/28 08:49:35;;;;;;;2.08;1.98;;;;;;;;;;5139188;27;20195;-59
2022/08/28 08:52:29;;;;;;;2.10;2.00;;;;;;;;;;5135714;27;20210;-60
2022/08/28 08:55:26;;;;;;;1.85;1.75;;;;;;;;;;5132597;27;20194;-59
2022/08/28 08:58:23;;;;;;;1.90;1.80;;;;;;;;;;5138815;27;20211;-59
2022/08/28 09:01:17;;;;;;;2.17;2.10;;;;;;;;;;5130238;27;20207;-60
2022/08/28 09:04:15;;;;;;;2.20;2.10;;;;;;;;;;5132293;27;20202;-61
2022/08/28 09:07:10;;;;;;;1.85;1.77;;;;;;;;;;5134741;27;20266;-59
2022/08/28 09:09:57;;;;;;;2.08;1.98;;;;;;;;;;5138225;27;20208;-59
2022/08/28 09:12:57;;;;;;;2.20;2.10;;;;;;;;;;5130108;27;20215;-59
2022/08/28 09:15:46;;;;;;;1.95;1.85;;;;;;;;;;5137274;27;20217;-59
2022/08/28 09:18:34;;;;;;;1.65;1.65;;;;;;;;;;5134063;27;20660;-60
2022/08/28 09:21:30;;;;;;;2.08;1.98;;;;;;;;;;5137945;27;20205;-59
2022/08/28 09:24:21;;;;;;;2.20;2.10;;;;;;;;;;5131789;27;20208;-63
2022/08/28 09:27:21;;;;;;;2.30;2.20;;;;;;;;;;5128798;27;20743;-59
2022/08/28 09:30:10;;;;;;;1.75;1.75;;;;;;;;;;5128377;27;20292;-59
2022/08/28 09:33:00;;;;;;;2.15;2.05;;;;;;;;;;5129953;27;20205;-60
2022/08/28 09:35:47;;;;;;;2.00;1.90;;;;;;;;;;5134586;27;20272;-59
2022/08/28 09:38:35;;;;;;;1.70;1.60;;;;;;;;;;5130306;27;20607;-60
2022/08/28 09:44:26;;;;;;;2.20;2.10;;;;;;;;;;5130090;27;20283;-59
2022/08/28 09:47:34;;;;;;;1.85;1.75;;;;;;;;;;5132244;27;20242;-60
2022/08/28 09:50:36;;;;;;;1.92;1.83;;;;;;;;;;5129781;28;20250;-59
2022/08/28 09:53:24;;;;;;;1.92;1.85;;;;;;;;;;5136529;27;20197;-60
2022/08/28 09:56:17;;;;;;;1.90;1.90;;;;;;;;;;5128857;27;20218;-59
2022/08/28 09:59:07;;;;;;;2.15;2.05;;;;;;;;;;5129974;28;20242;-60
2022/08/28 10:02:05;;;;;;;1.77;1.77;;;;;;;;;;5131254;27;20275;-60
2022/08/28 10:05:01;;;;;;;1.80;1.80;;;;;;;;;;5128810;27;20205;-60
2022/08/28 10:07:54;;;;;;;2.00;1.90;;;;;;;;;;5127791;28;20229;-59
2022/08/28 10:10:47;;;;;;;1.95;1.85;;;;;;;;;;5136503;27;20237;-60
2022/08/28 10:13:43;;;;;;;1.90;1.90;;;;;;;;;;5142066;27;20648;-60
2022/08/28 10:16:40;;;;;;;2.10;2.00;;;;;;;;;;5132466;27;20335;-59
2022/08/28 10:19:41;;;;;;;1.80;1.80;;;;;;;;;;5130651;27;20209;-59
2022/08/28 10:22:38;;;;;;;1.90;1.80;;;;;;;;;;5134919;27;20681;-59
2022/08/28 10:25:37;;;;;;;2.05;1.90;;;;;;;;;;5134991;27;20265;-60
2022/08/28 10:28:37;;;;;;;2.10;2.00;;;;;;;;;;5138431;27;20221;-60
2022/08/28 10:31:35;;;;;;;1.73;1.73;;;;;;;;;;5137249;27;20207;-59
2022/08/28 10:34:32;;;;;;;1.70;1.70;;;;;;;;;;5134889;27;20204;-60
2022/08/28 10:37:29;;;;;;;1.90;1.80;;;;;;;;;;5140375;27;20691;-59
2022/08/28 10:40:22;;;;;;;1.73;1.70;;;;;;;;;;5131987;27;20201;-60
2022/08/28 10:43:16;;;;;;;1.75;1.65;;;;;;;;;;5131910;27;20213;-60
2022/08/28 10:46:05;;;;;;;2.20;2.10;;;;;;;;;;5142286;27;20201;-60
2022/08/28 10:48:57;;;;;;;1.90;1.80;;;;;;;;;;5130238;27;20321;-59
2022/08/28 10:51:49;;;;;;;1.80;1.70;;;;;;;;;;5131130;27;20604;-60
2022/08/28 10:54:41;;;;;;;1.70;1.70;;;;;;;;;;5134518;27;20559;-59
2022/08/28 10:57:34;;;;;;;1.73;1.73;;;;;;;;;;5132289;27;20231;-59
2022/08/28 11:00:25;;;;;;;1.92;1.83;;;;;;;;;;5134937;27;20287;-59
2022/08/28 11:03:15;;;;;;;1.83;1.83;;;;;;;;;;5133181;27;20197;-60
2022/08/28 11:06:08;;;;;;;2.20;2.10;;;;;;;;;;5136064;27;20256;-59
2022/08/28 11:08:59;;;;;;;1.55;1.55;;;;;;;;;;5133967;27;20228;-60
2022/08/28 11:11:49;;;;;;;1.65;1.65;;;;;;;;;;5139779;27;20208;-60
2022/08/28 11:14:39;;;;;;;1.80;1.80;;;;;;;;;;5133201;27;20282;-60
2022/08/28 11:17:40;;;;;;;1.70;1.70;;;;;;;;;;5135862;27;20204;-59
2022/08/28 11:20:29;;;;;;;1.70;1.67;;;;;;;;;;5136523;27;20204;-59
2022/08/28 11:23:22;;;;;;;1.55;1.55;;;;;;;;;;5137402;27;20217;-59
2022/08/28 11:26:14;;;;;;;1.63;1.63;;;;;;;;;;5136128;27;20209;-59
2022/08/28 11:29:03;;;;;;;1.60;1.50;;;;;;;;;;5135247;27;20236;-60
2022/08/28 11:32:37;;;;;;;1.42;1.42;;;;;;;;;;5132048;27;20212;-60
2022/08/28 11:35:48;;;;;;;1.73;1.73;;;;;;;;;;5130887;27;20256;-60
2022/08/28 11:39:11;;;;;;;1.50;1.50;;;;;;;;;;5129173;27;20490;-60
2022/08/28 11:42:34;;;;;;;1.52;1.52;;;;;;;;;;5139590;27;20717;-60
2022/08/28 11:45:41;;;;;;;1.70;1.70;;;;;;;;;;5139056;27;20198;-60
2022/08/28 11:48:49;;;;;;;1.63;1.63;;;;;;;;;;5132502;27;20221;-60
2022/08/28 11:52:01;;;;;;;1.70;1.60;;;;;;;;;;5146368;27;20202;-59
2022/08/28 11:54:56;;;;;;;1.50;1.50;;;;;;;;;;5129571;27;20209;-59
2022/08/28 11:58:02;;;;;;;1.30;1.30;;;;;;;;;;5133471;27;20216;-60
2022/08/28 12:00:52;;;;;;;1.40;1.40;;;;;;;;;;5128687;27;20235;-60
2022/08/28 12:03:42;;;;;;;1.30;1.30;;;;;;;;;;5136476;27;20653;-60
2022/08/28 12:06:53;;;;;;;1.40;1.40;;;;;;;;;;5139043;27;20229;-60
2022/08/28 12:09:42;;;;;;;1.40;1.30;;;;;;;;;;5130617;27;20193;-59
2022/08/28 12:12:52;;;;;;;1.45;1.45;;;;;;;;;;5132036;27;20197;-60
2022/08/28 12:15:42;;;;;;;1.48;1.42;;;;;;;;;;5130838;27;20200;-60
2022/08/28 12:19:08;;;;;;;1.55;1.50;;;;;;;;;;5140923;27;20341;-59
2022/08/28 12:21:58;;;;;;;1.17;1.17;;;;;;;;;;5132983;27;20609;-60
2022/08/28 12:24:47;;;;;;;1.40;1.40;;;;;;;;;;5137570;27;20198;-60
2022/08/28 12:27:38;;;;;;;1.20;1.20;;;;;;;;;;5128240;27;20309;-59
2022/08/28 12:30:31;;;;;;;1.55;1.55;;;;;;;;;;5133013;27;20212;-59
2022/08/28 12:33:27;;;;;;;1.25;1.25;;;;;;;;;;5131063;27;20259;-60
2022/08/28 12:36:17;;;;;;;1.02;1.02;;;;;;;;;;5138732;27;20228;-59
2022/08/28 12:39:05;;;;;;;1.30;1.30;;;;;;;;;;5131994;27;20200;-60
2022/08/28 12:41:52;;;;;;;1.08;1.08;;;;;;;;;;5135282;27;20283;-59
2022/08/28 12:44:39;;;;;;;1.10;1.10;;;;;;;;;;5132363;27;20560;-59
2022/08/28 12:47:26;;;;;;;1.10;1.10;;;;;;;;;;5135545;27;20217;-59
2022/08/28 12:50:21;;;;;;;1.05;1.05;;;;;;;;;;5135769;27;20307;-59
2022/08/28 12:53:15;;;;;;;1.25;1.25;;;;;;;;;;5134757;27;20201;-60
2022/08/28 12:56:03;;;;;;;1.02;1.02;;;;;;;;;;5131278;27;20270;-60
2022/08/28 12:58:51;;;;;;;1.20;1.20;;;;;;;;;;5131914;27;20193;-60
2022/08/28 13:01:38;;;;;;;1.10;1.10;;;;;;;;;;5139993;27;20581;-59
2022/08/28 13:04:30;;;;;;;1.00;1.00;;;;;;;;;;5128526;27;20211;-59
2022/08/28 13:07:24;;;;;;;1.30;1.20;;;;;;;;;;5129745;27;20231;-59
2022/08/28 13:10:20;;;;;;;0.90;0.90;;;;;;;;;;5132199;27;20234;-59
2022/08/28 13:13:18;;;;;;;1.00;1.00;;;;;;;;;;5136469;27;20212;-59
2022/08/28 13:16:07;;;;;;;1.00;1.00;;;;;;;;;;5135829;27;20209;-59
2022/08/28 13:19:12;;;;;;;1.00;1.00;;;;;;;;;;5130239;27;20277;-59
2022/08/28 13:22:01;;;;;;;0.90;0.90;;;;;;;;;;5132823;27;20322;-59
2022/08/28 13:24:48;;;;;;;1.08;1.00;;;;;;;;;;5134217;27;20208;-59
2022/08/28 13:27:35;;;;;;;1.05;0.93;;;;;;;;;;5136850;27;20216;-59
2022/08/28 13:30:27;;;;;;;0.80;0.80;;;;;;;;;;5129654;27;20688;-59
2022/08/28 13:33:20;;;;;;;0.90;0.90;;;;;;;;;;5134856;27;20308;-59
2022/08/28 13:36:20;;;;;;;0.90;0.90;;;;;;;;;;5132956;27;20254;-59
2022/08/28 13:39:08;;;;;;;0.77;0.77;;;;;;;;;;5138802;27;20691;-59
2022/08/28 13:41:58;;;;;;;0.75;0.75;;;;;;;;;;5139291;27;20208;-59
2022/08/28 13:44:47;;;;;;;0.80;0.80;;;;;;;;;;5133946;27;20216;-59
2022/08/28 13:47:35;;;;;;;0.80;0.80;;;;;;;;;;5133933;27;20557;-59
2022/08/28 13:50:22;;;;;;;0.85;0.85;;;;;;;;;;5134023;27;20212;-59
2022/08/28 13:53:09;;;;;;;0.80;0.80;;;;;;;;;;5130035;27;20617;-58
2022/08/28 13:55:58;;;;;;;0.85;0.75;;;;;;;;;;5137950;27;20205;-59
2022/08/28 13:58:45;;;;;;;0.88;0.88;;;;;;;;;;5139801;27;20190;-59
2022/08/28 14:04:35;;;;;;;1.00;1.00;;;;;;;;;;5131463;27;20315;-59
2022/08/28 14:07:22;;;;;;;0.88;0.88;;;;;;;;;;5137089;27;20590;-58
2022/08/28 14:10:09;;;;;;;0.80;0.80;;;;;;;;;;5139963;27;20212;-58
2022/08/28 14:12:56;;;;;;;0.70;0.70;;;;;;;;;;5132804;27;20201;-59
2022/08/28 14:15:44;;;;;;;0.63;0.63;;;;;;;;;;5136148;27;20339;-59
2022/08/28 14:18:31;;;;;;;0.70;0.70;;;;;;;;;;5138894;27;20203;-59
2022/08/28 14:21:19;;;;;;;0.60;0.60;;;;;;;;;;5137440;27;20576;-58
2022/08/28 14:24:07;;;;;;;0.93;0.93;;;;;;;;;;5147597;27;20317;-59
2022/08/28 14:26:55;;;;;;;0.60;0.60;;;;;;;;;;5141760;27;20212;-59
2022/08/28 14:29:42;;;;;;;0.60;0.60;;;;;;;;;;5131392;27;20826;-59
2022/08/28 14:32:29;;;;;;;0.60;0.60;;;;;;;;;;5138059;27;20215;-59
2022/08/28 14:35:16;;;;;;;0.63;0.63;;;;;;;;;;5136669;27;20405;-59
2022/08/28 14:38:04;;;;;;;0.70;0.70;;;;;;;;;;5139518;27;20287;-59
2022/08/28 14:40:51;;;;;;;1.00;0.60;;;;;;;;;;5136548;27;20212;-59
2022/08/28 14:43:38;;;;;;;0.60;0.60;;;;;;;;;;5136363;27;20205;-59
2022/08/28 14:46:27;;;;;;;0.57;0.57;;;;;;;;;;5147009;27;20206;-59
2022/08/28 14:49:16;;;;;;;0.60;0.60;;;;;;;;;;5140666;27;20575;-59
2022/08/28 14:52:03;;;;;;;0.50;0.50;;;;;;;;;;5138756;27;20215;-60
2022/08/28 14:54:52;;;;;;;0.70;0.70;;;;;;;;;;5135302;27;20675;-59
2022/08/28 14:57:39;;;;;;;0.57;0.57;;;;;;;;;;5135893;27;20285;-59
2022/08/28 15:00:26;;;;;;;0.60;0.60;;;;;;;;;;5130644;27;20221;-59
2022/08/28 15:03:13;;;;;;;0.50;0.50;;;;;;;;;;5140207;27;20696;-59
2022/08/28 15:06:01;;;;;;;0.50;0.50;;;;;;;;;;5137696;27;20255;-59
2022/08/28 15:08:48;;;;;;;0.50;0.50;;;;;;;;;;5137336;27;20235;-58
2022/08/28 15:11:38;;;;;;;0.70;0.70;;;;;;;;;;5140257;27;20555;-59
2022/08/28 15:14:24;;;;;;;0.40;0.40;;;;;;;;;;5132185;27;20586;-59
2022/08/28 15:17:11;;;;;;;0.70;0.50;;;;;;;;;;5140283;27;20358;-59
2022/08/28 15:19:59;;;;;;;0.60;0.60;;;;;;;;;;5133196;27;20193;-59
2022/08/28 15:22:46;;;;;;;0.45;0.45;;;;;;;;;;5136889;27;20207;-59
2022/08/28 15:25:33;;;;;;;0.40;0.40;;;;;;;;;;5136510;27;20201;-59
2022/08/28 15:28:21;;;;;;;0.68;0.68;;;;;;;;;;5133869;27;20727;-59
2022/08/28 15:31:08;;;;;;;0.60;0.60;;;;;;;;;;5131813;27;20213;-59
2022/08/28 15:33:55;;;;;;;0.32;0.32;;;;;;;;;;5145091;27;20706;-59
2022/08/28 15:36:44;;;;;;;0.47;0.47;;;;;;;;;;5136370;27;20200;-59
2022/08/28 15:42:35;;;;;;;0.50;0.50;;;;;;;;;;5131823;27;20208;-59
2022/08/28 15:45:25;;;;;;;0.50;0.50;;;;;;;;;;5135690;27;20238;-59
2022/08/28 15:48:13;;;;;;;0.60;0.60;;;;;;;;;;5131523;27;20201;-59
2022/08/28 15:51:00;;;;;;;0.47;0.47;;;;;;;;;;5141316;27;20197;-59
2022/08/28 15:53:47;;;;;;;0.57;0.57;;;;;;;;;;5130579;27;20213;-58
2022/08/28 15:56:34;;;;;;;0.52;0.52;;;;;;;;;;5135594;27;20627;-59
2022/08/28 15:59:21;;;;;;;0.68;0.68;;;;;;;;;;5134446;27;20215;-58
2022/08/28 16:02:11;;;;;;;0.50;0.50;;;;;;;;;;5138428;27;20658;-59
2022/08/28 16:04:58;;;;;;;0.43;0.43;;;;;;;;;;5130236;27;20684;-59
2022/08/28 16:07:45;;;;;;;0.50;0.50;;;;;;;;;;5128188;27;20316;-59
2022/08/28 16:10:32;;;;;;;0.50;0.50;;;;;;;;;;5136818;27;20688;-59
2022/08/28 16:13:20;;;;;;;0.60;0.60;;;;;;;;;;5134930;27;20779;-58
2022/08/28 16:16:07;;;;;;;0.60;0.60;;;;;;;;;;5141802;27;20203;-59
2022/08/28 16:18:56;;;;;;;0.50;0.50;;;;;;;;;;5133034;27;20216;-59
2022/08/28 16:21:43;;;;;;;0.60;0.60;;;;;;;;;;5137451;27;20208;-58
2022/08/28 16:24:30;;;;;;;0.43;0.43;;;;;;;;;;5128884;27;20201;-59
2022/08/28 16:27:17;;;;;;;0.70;0.70;;;;;;;;;;5138530;27;20556;-58
2022/08/28 16:30:05;;;;;;;0.50;0.50;;;;;;;;;;5135109;27;20228;-59
2022/08/28 16:32:52;;;;;;;0.73;0.73;;;;;;;;;;5134788;27;20284;-59
2022/08/28 16:35:42;;;;;;;0.30;0.30;;;;;;;;;;5130681;27;20204;-59
2022/08/28 16:38:29;;;;;;;0.32;0.32;;;;;;;;;;5144069;27;20235;-59
2022/08/28 16:41:19;;;;;;;0.68;0.68;;;;;;;;;;5132456;27;20556;-59
2022/08/28 16:44:06;;;;;;;0.50;0.50;;;;;;;;;;5134017;27;20212;-59
2022/08/28 16:46:53;;;;;;;0.68;0.68;;;;;;;;;;5130975;27;20212;-59
2022/08/28 16:49:40;;;;;;;1.38;0.70;;;;;;;;;;5137622;27;20359;-59
2022/08/28 16:52:29;;;;;;;1.10;0.70;;;;;;;;;;5132725;27;20304;-58
2022/08/28 16:55:16;;;;;;;0.43;0.43;;;;;;;;;;5143741;27;20586;-59
2022/08/28 16:58:03;;;;;;;0.70;0.70;;;;;;;;;;5130025;27;20214;-59
2022/08/28 17:00:50;;;;;;;0.50;0.50;;;;;;;;;;5143008;27;20207;-60
2022/08/28 17:03:39;;;;;;;0.40;0.40;;;;;;;;;;5130282;27;20215;-59
2022/08/28 17:06:28;;;;;;;0.65;0.65;;;;;;;;;;5140826;27;20701;-59
2022/08/28 17:09:16;;;;;;;0.50;0.50;;;;;;;;;;5129589;27;20634;-59
2022/08/28 17:12:03;;;;;;;0.50;0.50;;;;;;;;;;5137587;27;20245;-59